Time;durP1;ratioP1;P1;durP2;ratioP2;P2;SDS_P1;SDS_P2;PMS_P1;PMS_P2;Temp;Humidity;BMP_temperature;BMP_pressure;BME280_temperature;BME280_humidity;BME280_pressure;Samples;Min_cycle;Max_cycle;Signal;HPM_P1;HPM_P2
2022/01/20 00:00:03;;;;;;;25.55;15.03;;;;;;;-0.22;69.83;99305.20;1755373;81;21229;-40
2022/01/20 00:02:27;;;;;;;26.20;14.83;;;;;;;-0.19;69.83;99304.61;1755997;81;21671;-40
2022/01/20 00:05:10;;;;;;;25.62;14.98;;;;;;;-0.19;69.91;99305.41;1756530;81;21080;-40
2022/01/20 00:07:31;;;;;;;26.85;15.55;;;;;;;-0.19;69.90;99304.08;1754649;81;20946;-39
2022/01/20 00:26:11;;;;;;;24.80;15.48;;;;;;;-0.13;70.13;99275.48;1756858;81;21104;-41
2022/01/20 00:28:45;;;;;;;;;;;;;;;-0.10;70.08;99265.03;1759033;81;21037;-41
2022/01/20 00:33:45;;;;;;;25.43;14.85;;;;;;;-0.14;70.23;99264.03;1756555;81;21322;-41
2022/01/20 00:38:39;;;;;;;22.50;14.90;;;;;;;-0.09;70.18;99250.62;1756721;81;21582;-41
2022/01/20 00:41:08;;;;;;;23.50;15.32;;;;;;;-0.05;70.10;99250.86;1756705;81;21012;-42
2022/01/20 00:43:35;;;;;;;24.00;14.83;;;;;;;-0.05;69.95;99247.63;1756754;81;21535;-41
2022/01/20 00:46:01;;;;;;;23.40;14.90;;;;;;;-0.09;70.03;99239.17;1756873;81;21025;-41
2022/01/20 00:48:28;;;;;;;21.65;14.33;;;;;;;-0.09;70.08;99240.51;1756601;81;21007;-41
2022/01/20 00:50:55;;;;;;;26.20;15.13;;;;;;;-0.12;70.18;99241.10;1749498;81;21139;-42
2022/01/20 00:53:21;;;;;;;25.15;14.78;;;;;;;-0.11;70.17;99242.69;1743110;82;21006;-41
2022/01/20 00:55:48;;;;;;;29.10;15.83;;;;;;;-0.12;70.28;99233.91;1743368;82;20977;-41
2022/01/20 00:58:15;;;;;;;24.25;15.63;;;;;;;-0.10;70.20;99221.63;1743171;82;20934;-41
2022/01/20 01:00:42;;;;;;;24.43;14.87;;;;;;;-0.10;70.21;99219.73;1743183;82;21009;-41
2022/01/20 01:03:09;;;;;;;22.82;14.95;;;;;;;-0.08;70.23;99217.58;1743312;82;21088;-41
2022/01/20 01:05:43;;;;;;;25.90;14.93;;;;;;;-0.06;70.13;99215.42;1743349;82;21068;-42
2022/01/20 01:08:06;;;;;;;23.38;15.13;;;;;;;-0.06;70.21;99217.30;1742866;81;20930;-41
2022/01/20 01:10:35;;;;;;;23.92;15.03;;;;;;;-0.03;70.15;99216.70;1743234;82;21041;-41
2022/01/20 01:13:08;;;;;;;23.15;14.95;;;;;;;-0.03;70.12;99208.16;1743343;82;21022;-41
2022/01/20 01:15:38;;;;;;;24.67;14.97;;;;;;;-0.03;70.06;99200.17;1743095;81;21323;-42
2022/01/20 01:23:41;;;;;;;29.15;16.42;;;;;;;-0.10;70.26;99184.33;1743231;82;21022;-41
2022/01/20 01:26:15;;;;;;;26.73;16.52;;;;;;;-0.10;70.26;99183.00;1742804;81;21045;-41
2022/01/20 01:28:43;;;;;;;26.87;16.70;;;;;;;-0.13;70.39;99179.03;1772063;80;21830;-41
2022/01/20 01:33:53;;;;;;;28.07;17.32;;;;;;;-0.11;70.39;99169.42;1772082;81;20918;-42
2022/01/20 01:36:12;;;;;;;26.62;16.12;;;;;;;-0.11;70.39;99168.88;1772036;80;21004;-41
2022/01/20 01:38:41;;;;;;;25.75;16.97;;;;;;;-0.10;70.43;99172.34;1771993;81;21068;-41
2022/01/20 01:41:13;;;;;;;29.12;16.95;;;;;;;-0.11;70.40;99161.42;1772296;81;21113;-41
2022/01/20 01:43:44;;;;;;;30.12;17.40;;;;;;;-0.13;70.41;99163.05;1771930;80;21004;-41
2022/01/20 01:46:12;;;;;;;;;;;;;;;-0.12;70.44;99167.83;1774928;80;20933;-41
2022/01/20 01:48:41;;;;;;;25.32;16.00;;;;;;;-0.13;70.49;99163.05;1772119;80;20169;-41
2022/01/20 01:51:09;;;;;;;28.05;16.60;;;;;;;-0.19;70.64;99166.08;1772049;80;21582;-41
2022/01/20 01:53:38;;;;;;;26.55;16.02;;;;;;;-0.17;70.65;99157.27;1771958;80;21097;-41
2022/01/20 01:56:06;;;;;;;25.48;16.77;;;;;;;-0.14;70.53;99152.12;1769451;81;21763;-41
2022/01/20 01:58:34;;;;;;;23.70;14.70;;;;;;;-0.14;70.42;99152.12;1769195;80;21519;-41
2022/01/20 02:01:05;;;;;;;25.88;15.90;;;;;;;-0.13;70.35;99148.92;1771589;81;21868;-41
2022/01/20 02:03:34;;;;;;;23.92;15.60;;;;;;;-0.15;70.34;99142.58;1772125;81;21017;-41
2022/01/20 02:06:25;;;;;;;25.92;16.52;;;;;;;-0.15;70.37;99145.25;1771594;81;21122;-41
2022/01/20 02:08:44;;;;;;;26.20;16.15;;;;;;;-0.13;70.31;99141.73;1771672;80;21492;-41
2022/01/20 02:19:26;;;;;;;26.02;16.60;;;;;;;-0.12;70.26;99137.19;1771976;81;21145;-41
2022/01/20 02:22:01;;;;;;;23.15;15.32;;;;;;;-0.13;70.20;99135.61;1724872;81;21006;-41
2022/01/20 02:24:27;;;;;;;25.32;16.25;;;;;;;-0.13;70.17;99124.95;1713566;82;20990;-41
2022/01/20 02:26:54;;;;;;;26.70;16.42;;;;;;;-0.12;70.09;99122.53;1713566;83;20962;-41
2022/01/20 02:29:26;;;;;;;28.55;15.85;;;;;;;-0.12;70.00;99118.00;1713540;82;21507;-41
2022/01/20 02:31:58;;;;;;;25.68;15.93;;;;;;;-0.12;69.86;99124.66;1713499;83;21118;-41
2022/01/20 02:34:28;;;;;;;27.20;16.60;;;;;;;-0.15;70.01;99117.81;1713500;83;21531;-41
2022/01/20 02:36:56;;;;;;;23.62;17.23;;;;;;;-0.18;70.01;99110.39;1714057;83;21001;-41
2022/01/20 02:47:23;;;;;;;26.82;17.27;;;;;;;-0.27;69.94;99097.50;1713758;83;21033;-41
2022/01/20 02:49:50;;;;;;;26.00;16.65;;;;;;;-0.30;69.91;99096.23;1713564;82;20965;-41
2022/01/20 02:52:16;;;;;;;25.08;15.53;;;;;;;-0.36;70.03;99097.41;1723973;83;21033;-42
2022/01/20 02:54:43;;;;;;;25.32;16.67;;;;;;;-0.40;70.00;99093.75;1726546;82;21583;-41
2022/01/20 02:57:10;;;;;;;29.23;15.90;;;;;;;-0.45;70.09;99083.98;1726655;83;21895;-41
2022/01/20 02:59:38;;;;;;;25.20;15.83;;;;;;;-0.46;70.13;99078.41;1726518;82;21550;-41
2022/01/20 03:02:06;;;;;;;24.70;15.30;;;;;;;-0.46;70.13;99071.74;1710286;83;21079;-41
2022/01/20 03:04:33;;;;;;;24.32;16.12;;;;;;;-0.49;70.12;99060.36;1726528;83;21551;-42
2022/01/20 03:07:03;;;;;;;25.20;15.30;;;;;;;-0.52;70.13;99060.93;1726570;83;21033;-41
2022/01/20 03:09:30;;;;;;;24.77;15.08;;;;;;;-0.52;70.18;99058.27;1726492;83;21562;-42
2022/01/20 03:11:57;;;;;;;22.90;15.58;;;;;;;-0.49;70.02;99056.91;1726341;83;21315;-41
2022/01/20 03:14:26;;;;;;;22.80;14.68;;;;;;;-0.52;70.02;99054.27;1726567;82;21020;-41
2022/01/20 03:16:52;;;;;;;22.93;13.90;;;;;;;-0.53;69.96;99045.23;1726518;82;20993;-41
2022/01/20 03:19:19;;;;;;;23.05;14.80;;;;;;;-0.60;70.14;99036.86;1726523;83;21636;-41
2022/01/20 03:21:47;;;;;;;22.20;13.58;;;;;;;-0.62;70.12;99036.35;1726484;81;21134;-41
2022/01/20 03:24:14;;;;;;;22.77;15.28;;;;;;;-0.66;70.20;99032.70;1726398;82;20929;-42
2022/01/20 03:26:41;;;;;;;26.23;15.72;;;;;;;-0.69;70.23;99030.64;1726554;82;21582;-41
2022/01/20 03:29:10;;;;;;;21.68;14.25;;;;;;;-0.75;70.38;99034.47;1726406;83;20981;-41
2022/01/20 03:31:37;;;;;;;23.57;14.83;;;;;;;-0.76;70.40;99019.58;1726422;83;21081;-41
2022/01/20 03:34:04;;;;;;;23.90;14.60;;;;;;;-0.79;70.45;99016.17;1726537;83;21082;-41
2022/01/20 03:36:33;;;;;;;21.80;14.55;;;;;;;-0.80;70.41;99015.39;1726417;83;21020;-41
2022/01/20 03:39:05;;;;;;;23.32;15.00;;;;;;;-0.79;70.39;99004.99;1726284;82;21001;-41
2022/01/20 03:41:32;;;;;;;25.75;15.08;;;;;;;-0.79;70.34;99007.66;1726675;82;20951;-41
2022/01/20 03:43:59;;;;;;;25.17;15.30;;;;;;;-0.78;70.29;98997.27;1748844;81;21091;-41
2022/01/20 03:46:26;;;;;;;28.00;16.07;;;;;;;-0.83;70.31;98997.35;1756565;81;21132;-41
2022/01/20 03:48:55;;;;;;;21.73;14.95;;;;;;;-0.85;70.26;98998.71;1756552;81;21010;-41
2022/01/20 03:51:24;;;;;;;23.87;15.90;;;;;;;-0.89;70.30;98999.84;1752613;81;20965;-41
2022/01/20 03:53:54;;;;;;;29.77;16.40;;;;;;;-0.92;70.31;98993.22;1743277;81;21512;-41
2022/01/20 03:56:22;;;;;;;24.43;14.68;;;;;;;-0.94;70.26;99003.39;1743819;82;21042;-41
2022/01/20 03:58:52;;;;;;;24.85;15.20;;;;;;;-0.98;70.39;98986.97;1742912;81;21151;-41
2022/01/20 04:01:19;;;;;;;25.00;15.75;;;;;;;-1.02;70.51;98979.33;1743443;82;20969;-41
2022/01/20 04:03:48;;;;;;;25.05;16.07;;;;;;;-1.06;70.55;98976.98;1728750;82;20950;-42
2022/01/20 04:06:17;;;;;;;25.00;15.30;;;;;;;-1.08;70.56;98976.50;1742654;81;21072;-41
2022/01/20 04:08:46;;;;;;;23.45;15.40;;;;;;;-1.10;70.50;98970.67;1743246;81;21014;-41
2022/01/20 04:11:22;;;;;;;;;;;;;;;-1.15;70.58;98966.77;1746079;82;21110;-41
2022/01/20 04:13:50;;;;;;;27.40;14.90;;;;;;;-1.16;70.63;98951.91;1743171;81;20144;-41
2022/01/20 04:16:32;;;;;;;23.42;14.75;;;;;;;-1.27;70.83;98957.14;1743174;81;21038;-41
2022/01/20 04:18:56;;;;;;;25.27;15.68;;;;;;;-1.26;70.81;98949.42;1742713;81;21053;-41
2022/01/20 04:21:25;;;;;;;24.45;15.40;;;;;;;-1.26;70.75;98957.41;1743624;81;21077;-41
2022/01/20 04:23:52;;;;;;;22.93;15.58;;;;;;;-1.28;70.71;98950.24;1743221;82;21055;-41
2022/01/20 04:26:20;;;;;;;26.23;15.78;;;;;;;-1.30;70.65;98950.52;1743112;81;21061;-41
2022/01/20 04:28:48;;;;;;;22.48;14.87;;;;;;;-1.33;70.71;98953.23;1743081;81;21473;-41
2022/01/20 04:31:15;;;;;;;26.42;17.02;;;;;;;-1.32;70.62;98957.48;1752896;81;20891;-41
2022/01/20 04:33:42;;;;;;;26.87;15.45;;;;;;;-1.34;70.56;98954.85;1763872;81;21049;-41
2022/01/20 04:36:09;;;;;;;29.02;16.82;;;;;;;-1.34;70.52;98949.00;1763953;81;21101;-41
2022/01/20 04:38:37;;;;;;;27.58;17.05;;;;;;;-1.32;70.44;98950.05;1763711;81;20982;-41
2022/01/20 04:41:04;;;;;;;26.62;16.77;;;;;;;-1.36;70.45;98943.20;1763964;81;21034;-41
2022/01/20 04:43:31;;;;;;;24.63;16.02;;;;;;;-1.37;70.38;98942.94;1763770;81;21065;-41
2022/01/20 04:46:08;;;;;;;26.60;16.07;;;;;;;-1.41;70.44;98933.97;1763777;81;21077;-41
2022/01/20 04:48:48;;;;;;;27.55;16.35;;;;;;;-1.41;70.39;98934.52;1763139;81;21880;-41
2022/01/20 04:59:17;;;;;;;28.45;16.17;;;;;;;-1.54;70.38;98920.08;1764337;80;21061;-41
2022/01/20 05:01:46;;;;;;;25.68;17.15;;;;;;;-1.56;70.31;98914.28;1764800;81;21097;-41
2022/01/20 05:04:14;;;;;;;29.77;16.48;;;;;;;-1.57;70.36;98913.23;1763082;81;20919;-41
2022/01/20 05:06:47;;;;;;;25.23;15.43;;;;;;;-1.57;70.33;98915.35;1764646;80;21540;-41
2022/01/20 05:09:19;;;;;;;24.32;15.35;;;;;;;-1.58;70.18;98915.64;1764270;81;21488;-41
2022/01/20 05:11:44;;;;;;;24.40;14.78;;;;;;;-1.62;70.21;98913.31;1764659;80;21001;-41
2022/01/20 05:14:11;;;;;;;24.53;14.10;;;;;;;-1.62;70.12;98908.79;1764485;81;21138;-41
2022/01/20 05:16:39;;;;;;;25.85;14.03;;;;;;;-1.63;70.04;98913.05;1764254;80;21185;-41
2022/01/20 05:19:06;;;;;;;28.25;15.05;;;;;;;-1.63;70.05;98907.74;1764295;81;21049;-41
2022/01/20 05:21:33;;;;;;;21.57;14.18;;;;;;;-1.64;70.01;98910.14;1736338;80;21453;-41
2022/01/20 05:24:01;;;;;;;24.37;13.70;;;;;;;-1.62;69.88;98904.02;1701258;83;21057;-41
2022/01/20 05:26:27;;;;;;;23.02;13.48;;;;;;;-1.60;69.69;98910.63;1718970;83;21596;-41
2022/01/20 05:28:54;;;;;;;21.20;14.20;;;;;;;-1.66;69.63;98909.13;1718921;83;21516;-41
2022/01/20 05:31:21;;;;;;;21.12;11.83;;;;;;;-2.05;69.54;98842.27;1718918;83;21540;-41
2022/01/20 05:33:50;;;;;;;16.80;10.10;;;;;;;-1.68;69.45;98897.98;1719191;83;20916;-41
2022/01/20 05:36:16;;;;;;;19.40;11.78;;;;;;;-1.70;69.37;98895.38;1719049;83;21274;-41
2022/01/20 05:38:43;;;;;;;20.27;12.55;;;;;;;-1.70;69.23;98900.16;1718907;83;21143;-41
2022/01/20 05:41:09;;;;;;;20.55;10.45;;;;;;;-1.70;69.05;98897.50;1713503;83;21527;-41
2022/01/20 05:43:36;;;;;;;18.45;11.53;;;;;;;-1.76;68.95;98890.68;1718821;83;21524;-41
2022/01/20 05:46:04;;;;;;;19.12;12.18;;;;;;;-1.78;68.83;98891.50;1718925;83;21630;-41
2022/01/20 05:48:33;;;;;;;16.52;10.80;;;;;;;-1.82;68.78;98891.83;1719061;83;20965;-41
2022/01/20 05:51:20;;;;;;;17.05;11.12;;;;;;;-1.82;68.67;98885.19;1718629;82;21106;-41
2022/01/20 05:53:47;;;;;;;18.65;11.30;;;;;;;-1.82;68.58;98898.47;1713292;83;20977;-41
2022/01/20 05:56:14;;;;;;;19.45;10.98;;;;;;;-1.83;68.48;98886.27;1713515;83;21640;-41
2022/01/20 05:58:41;;;;;;;22.17;11.63;;;;;;;-1.84;68.33;98880.72;1713555;83;21006;-41
2022/01/20 06:01:10;;;;;;;20.30;10.93;;;;;;;-1.85;68.21;98873.83;1713512;82;21045;-41
2022/01/20 06:03:36;;;;;;;24.47;11.90;;;;;;;-1.88;68.21;98879.16;1713618;83;21092;-41
2022/01/20 06:06:08;;;;;;;21.52;11.30;;;;;;;-1.88;68.12;98891.66;1713737;83;21574;-41
2022/01/20 06:08:35;;;;;;;17.50;11.10;;;;;;;-1.89;68.14;98891.42;1713424;83;21059;-41
2022/01/20 06:11:02;;;;;;;27.00;17.35;;;;;;;-1.91;67.94;98884.27;1713588;82;21052;-41
2022/01/20 06:13:29;;;;;;;78.00;37.65;;;;;;;-1.90;67.87;98861.95;1703525;83;22112;-41
2022/01/20 06:15:56;;;;;;;33.85;18.25;;;;;;;-1.89;67.71;98864.86;1713861;83;21922;-41
2022/01/20 06:18:23;;;;;;;27.45;16.25;;;;;;;-1.90;67.68;98861.95;1713659;83;20966;-41
2022/01/20 06:20:55;;;;;;;23.67;14.93;;;;;;;-1.92;67.64;98860.11;1712521;82;21013;-41
2022/01/20 06:23:23;;;;;;;79.77;43.08;;;;;;;-1.90;67.45;98859.29;1713744;83;21002;-41
2022/01/20 06:25:51;;;;;;;150.60;66.82;;;;;;;-1.89;67.38;98860.88;1713596;83;21036;-41
2022/01/20 06:28:18;;;;;;;33.35;20.68;;;;;;;-1.90;67.26;98872.04;1713539;83;21114;-41
2022/01/20 06:30:45;;;;;;;21.57;13.20;;;;;;;-1.92;67.21;98869.41;1713492;83;20982;-41
2022/01/20 06:33:11;;;;;;;21.35;12.95;;;;;;;-1.91;67.25;98867.00;1713592;83;21555;-41
2022/01/20 06:35:40;;;;;;;20.60;11.18;;;;;;;-1.93;67.19;98858.52;1713551;82;21049;-41
2022/01/20 06:38:07;;;;;;;20.75;12.63;;;;;;;-1.95;67.17;98857.50;1713741;83;21037;-41
2022/01/20 06:40:34;;;;;;;21.17;13.05;;;;;;;-1.90;67.11;98849.99;1713748;82;21535;-41
2022/01/20 06:43:02;;;;;;;20.40;12.35;;;;;;;-1.92;67.05;98856.13;1713568;83;21007;-41
2022/01/20 06:45:29;;;;;;;22.65;11.70;;;;;;;-1.90;66.81;98846.02;1714015;83;21042;-41
2022/01/20 06:47:58;;;;;;;19.00;11.00;;;;;;;-1.92;66.77;98837.53;1713133;82;21021;-41
2022/01/20 06:50:25;;;;;;;21.48;11.53;;;;;;;-1.89;66.68;98831.66;1713768;83;21630;-41
2022/01/20 06:52:54;;;;;;;21.17;11.28;;;;;;;-1.86;66.54;98820.44;1720338;82;21134;-41
2022/01/20 06:55:21;;;;;;;23.00;11.83;;;;;;;-1.86;66.54;98815.12;1726428;83;21041;-41
2022/01/20 06:57:48;;;;;;;41.80;23.27;;;;;;;-1.82;66.50;98812.92;1726557;83;21100;-41
2022/01/20 07:00:18;;;;;;;147.40;76.62;;;;;;;-1.80;66.25;98815.30;1726418;83;21471;-41
2022/01/20 07:02:45;;;;;;;98.42;46.63;;;;;;;-1.79;66.23;98811.53;1726848;83;21000;-41
2022/01/20 07:05:14;;;;;;;87.88;42.55;;;;;;;-1.74;66.07;98811.45;1726479;83;21078;-41
2022/01/20 07:07:42;;;;;;;206.28;91.60;;;;;;;-1.74;65.81;98814.11;1726618;83;21072;-41
2022/01/20 07:10:12;;;;;;;186.45;92.27;;;;;;;-1.67;65.71;98820.38;1725217;82;21022;-41
2022/01/20 07:12:47;;;;;;;163.12;75.00;;;;;;;-1.66;65.60;98831.27;1725889;82;21005;-41
2022/01/20 07:15:15;;;;;;;66.35;34.92;;;;;;;-1.59;65.34;98823.15;1726539;82;21092;-41
2022/01/20 07:17:42;;;;;;;65.22;31.48;;;;;;;-1.52;65.16;98819.58;1744289;81;21780;-41
2022/01/20 07:20:11;;;;;;;55.33;27.40;;;;;;;-1.52;65.06;98819.58;1755128;81;21758;-41
2022/01/20 07:22:40;;;;;;;76.82;38.63;;;;;;;-1.50;64.84;98801.45;1724448;82;22225;-41
2022/01/20 07:25:08;;;;;;;87.92;42.23;;;;;;;-1.51;64.86;98795.91;1726518;83;21041;-41
2022/01/20 07:27:40;;;;;;;85.38;43.30;;;;;;;-1.49;64.76;98800.38;1725479;82;21065;-41
2022/01/20 07:30:09;;;;;;;109.35;52.20;;;;;;;-1.46;64.72;98796.36;1726657;83;21120;-41
2022/01/20 07:32:38;;;;;;;61.60;31.80;;;;;;;-1.41;64.83;98799.72;1726620;83;21582;-41
2022/01/20 07:35:08;;;;;;;39.20;21.55;;;;;;;-1.32;64.63;98799.27;1726520;82;21017;-41
2022/01/20 07:37:36;;;;;;;45.38;24.43;;;;;;;-1.23;64.19;98798.03;1741476;81;21546;-41
2022/01/20 07:40:05;;;;;;;50.83;28.47;;;;;;;-1.17;64.08;98804.05;1756477;81;20998;-41
2022/01/20 07:42:31;;;;;;;36.48;19.60;;;;;;;-1.14;63.78;98804.77;1756492;81;21892;-41
2022/01/20 07:45:13;;;;;;;25.60;14.13;;;;;;;-1.10;63.68;98800.44;1755730;81;21017;-41
2022/01/20 07:47:44;;;;;;;27.17;16.23;;;;;;;-1.07;63.55;98802.52;1756043;81;21531;-41
2022/01/20 07:50:12;;;;;;;49.42;25.65;;;;;;;-1.01;63.50;98788.80;1756588;81;21072;-41
2022/01/20 07:52:39;;;;;;;94.95;45.58;;;;;;;-0.92;62.91;98792.91;1756491;81;20938;-41
2022/01/20 07:55:08;;;;;;;47.70;29.12;;;;;;;-0.83;62.98;98779.14;1756478;81;21150;-41
2022/01/20 07:57:35;;;;;;;60.43;32.78;;;;;;;-0.71;62.62;98781.27;1756543;81;21499;-41
2022/01/20 08:00:06;;;;;;;69.17;37.35;;;;;;;-0.57;62.19;98782.81;1756459;81;20992;-41
2022/01/20 08:02:34;;;;;;;38.85;21.82;;;;;;;-0.48;61.88;98774.34;1755598;81;20973;-41
2022/01/20 08:05:01;;;;;;;64.62;30.25;;;;;;;-0.35;61.10;98767.95;1756507;81;21008;-41
2022/01/20 08:07:28;;;;;;;47.05;25.17;;;;;;;-0.28;60.87;98770.97;1756638;81;21959;-41
2022/01/20 08:09:59;;;;;;;61.48;35.23;;;;;;;-0.20;60.61;98764.94;1756290;81;20990;-41
2022/01/20 08:12:28;;;;;;;41.58;24.10;;;;;;;-0.14;60.54;98762.38;1756624;81;20961;-41
2022/01/20 08:15:12;;;;;;;38.50;22.10;;;;;;;-0.04;60.41;98769.58;1756179;81;21047;-41
2022/01/20 08:17:43;;;;;;;28.42;15.80;;;;;;;0.06;59.74;98773.08;1743946;81;20993;-41
2022/01/20 08:20:12;;;;;;;22.05;12.47;;;;;;;0.07;59.25;98763.46;1756432;81;21135;-41
2022/01/20 08:22:39;;;;;;;30.90;14.58;;;;;;;0.15;59.40;98772.04;1756556;81;21036;-41
2022/01/20 08:25:13;;;;;;;18.77;10.75;;;;;;;0.24;58.34;98780.11;1756373;81;21032;-41
2022/01/20 08:27:41;;;;;;;19.30;11.48;;;;;;;0.29;58.52;98778.64;1756484;81;21582;-41
2022/01/20 08:30:12;;;;;;;16.85;11.22;;;;;;;0.36;58.43;98784.31;1756465;81;21072;-42
2022/01/20 08:32:40;;;;;;;20.32;12.18;;;;;;;0.41;58.44;98787.64;1756513;81;21067;-41
2022/01/20 08:35:14;;;;;;;19.87;12.03;;;;;;;0.51;58.11;98786.59;1755049;81;21027;-41
2022/01/20 08:37:52;;;;;;;20.10;11.30;;;;;;;0.62;57.89;98775.11;1756154;81;20961;-41
2022/01/20 08:40:22;;;;;;;19.37;10.75;;;;;;;0.65;57.80;98782.48;1756486;81;21029;-41
2022/01/20 08:42:51;;;;;;;25.00;13.45;;;;;;;0.74;57.43;98767.29;1756555;81;20997;-41
2022/01/20 08:45:22;;;;;;;24.07;13.25;;;;;;;0.83;57.49;98762.22;1756463;81;21128;-42
2022/01/20 08:47:52;;;;;;;157.12;61.58;;;;;;;0.93;56.54;98763.81;1756498;81;20996;-42
2022/01/20 08:50:19;;;;;;;37.55;19.35;;;;;;;1.08;56.36;98761.25;1739322;81;20929;-42
2022/01/20 08:52:46;;;;;;;25.52;16.52;;;;;;;1.19;56.51;98765.21;1756356;81;21033;-41
2022/01/20 08:55:13;;;;;;;20.82;11.83;;;;;;;1.36;56.07;98764.42;1756453;81;21029;-41
2022/01/20 08:57:45;;;;;;;17.90;11.60;;;;;;;1.51;55.88;98754.62;1756391;81;21141;-41
2022/01/20 09:00:14;;;;;;;22.40;11.08;;;;;;;1.59;54.59;98739.16;1756457;81;21515;-41
2022/01/20 09:02:43;;;;;;;21.82;12.15;;;;;;;1.60;54.35;98736.16;1752626;81;20937;-41
2022/01/20 09:05:10;;;;;;;20.17;11.48;;;;;;;1.62;54.53;98741.98;1756291;81;22150;-41
2022/01/20 09:07:39;;;;;;;33.38;19.23;;;;;;;1.60;54.45;98726.02;1735065;81;21563;-42
2022/01/20 09:10:08;;;;;;;20.72;11.90;;;;;;;1.63;54.26;98725.41;1756444;81;21127;-41
2022/01/20 09:18:08;;;;;;;19.37;10.93;;;;;;;1.78;54.90;98714.23;1756665;81;21028;-41
2022/01/20 09:20:38;;;;;;;19.30;11.95;;;;;;;1.89;55.04;98712.02;1756483;81;21475;-42
2022/01/20 09:23:05;;;;;;;17.23;10.80;;;;;;;1.95;54.18;98704.83;1756596;81;21121;-41
2022/01/20 09:25:33;;;;;;;20.77;11.45;;;;;;;1.99;53.91;98703.08;1756542;81;20964;-42
2022/01/20 09:28:00;;;;;;;19.27;11.65;;;;;;;2.03;53.80;98689.88;1756299;81;21469;-41
2022/01/20 09:30:29;;;;;;;21.50;11.80;;;;;;;2.08;53.60;98682.45;1756536;81;21367;-42
2022/01/20 09:33:10;;;;;;;19.60;11.53;;;;;;;2.13;53.75;98661.47;1756505;81;21500;-41
2022/01/20 09:35:29;;;;;;;21.35;11.12;;;;;;;2.16;53.91;98657.59;1754492;81;21850;-42
2022/01/20 09:37:57;;;;;;;21.30;11.93;;;;;;;2.24;53.10;98656.52;1756491;81;20960;-41
2022/01/20 09:40:24;;;;;;;24.50;14.20;;;;;;;2.27;53.28;98649.21;1756469;81;21074;-42
2022/01/20 09:42:52;;;;;;;18.50;11.48;;;;;;;2.39;53.37;98666.69;1755825;81;20994;-41
2022/01/20 09:45:19;;;;;;;16.55;10.53;;;;;;;2.48;52.90;98664.75;1756529;81;21080;-42
2022/01/20 09:47:46;;;;;;;16.90;11.88;;;;;;;2.58;52.50;98664.38;1756531;81;21130;-42
2022/01/20 09:50:31;;;;;;;20.50;11.83;;;;;;;2.58;52.28;98641.09;1756692;81;21036;-41
2022/01/20 09:53:04;;;;;;;18.67;11.22;;;;;;;2.63;52.60;98632.88;1752388;81;21142;-42
2022/01/20 09:55:43;;;;;;;21.55;11.40;;;;;;;2.75;52.31;98629.50;1736419;81;20958;-42
2022/01/20 09:58:09;;;;;;;18.23;10.40;;;;;;;2.79;52.36;98622.94;1734662;82;21908;-41
2022/01/20 10:00:39;;;;;;;20.27;11.93;;;;;;;2.84;52.39;98614.16;1734703;82;21101;-42
2022/01/20 10:03:10;;;;;;;17.20;11.15;;;;;;;2.92;52.28;98609.28;1713763;82;21138;-41
2022/01/20 10:09:01;;;;;;;18.20;11.22;;;;;;;3.25;52.04;98585.77;1843269;76;22584;-41
2022/01/20 10:11:50;;;;;;;18.92;10.80;;;;;;;3.33;51.95;98584.36;1812372;79;21005;-41
2022/01/20 10:14:21;;;;;;;18.70;10.72;;;;;;;3.43;51.15;98596.01;1768148;79;21840;-41
2022/01/20 10:16:56;;;;;;;19.65;11.70;;;;;;;3.54;51.20;98607.63;1812115;79;20947;-41
2022/01/20 10:19:28;;;;;;;35.00;19.67;;;;;;;3.64;50.93;98603.97;1814405;79;21004;-41
2022/01/20 10:21:57;;;;;;;55.48;28.57;;;;;;;3.66;51.61;98604.44;1823854;77;20923;-41
2022/01/20 10:24:40;;;;;;;58.10;28.55;;;;;;;3.65;51.53;98604.20;1782708;78;20903;-41
2022/01/20 10:27:13;;;;;;;81.15;50.90;;;;;;;3.64;51.37;98606.64;1825996;78;21057;-41
2022/01/20 10:29:44;;;;;;;29.20;18.37;;;;;;;3.64;51.62;98590.56;1825272;78;21045;-41
2022/01/20 10:32:12;;;;;;;21.62;13.28;;;;;;;3.70;51.12;98582.55;1793034;78;27087;-41
2022/01/20 10:34:39;;;;;;;20.30;11.10;;;;;;;3.78;50.94;98578.19;1826193;78;21089;-41
2022/01/20 10:37:15;;;;;;;20.23;11.57;;;;;;;3.86;51.03;98576.77;1825509;78;21070;-41
2022/01/20 10:39:46;;;;;;;17.77;11.15;;;;;;;3.96;50.97;98568.05;1825884;78;21111;-41
2022/01/20 10:42:28;;;;;;;17.65;10.90;;;;;;;4.05;50.82;98560.68;1828091;77;20971;-41
2022/01/20 10:44:57;;;;;;;16.62;10.60;;;;;;;4.04;50.86;98549.16;1859874;77;20983;-41
2022/01/20 10:47:28;;;;;;;17.62;11.03;;;;;;;4.04;50.97;98541.12;1859902;77;20964;-41
2022/01/20 10:49:59;;;;;;;16.60;10.25;;;;;;;4.07;51.04;98535.63;1859399;77;21027;-41
2022/01/20 10:52:31;;;;;;;16.75;10.88;;;;;;;4.15;51.37;98550.84;1857987;77;21110;-41
2022/01/20 10:54:59;;;;;;;17.98;10.20;;;;;;;4.18;50.97;98551.50;1859635;77;20995;-41
2022/01/20 10:57:30;;;;;;;14.93;9.90;;;;;;;3.98;50.83;98542.45;1858085;77;20912;-41
2022/01/20 11:00:01;;;;;;;;;;;;;;;3.77;51.89;98543.92;1862516;77;21554;-41
2022/01/20 11:02:51;;;;;;;18.40;11.20;;;;;;;3.65;52.26;98537.19;1858243;77;20163;-41
2022/01/20 11:05:18;;;;;;;20.85;11.25;;;;;;;3.46;53.04;98534.27;1859674;77;21105;-41
2022/01/20 11:07:46;;;;;;;18.42;10.85;;;;;;;3.47;53.36;98533.16;1854192;77;20985;-41
2022/01/20 11:10:13;;;;;;;15.98;10.43;;;;;;;3.44;53.08;98538.60;1846282;77;21510;-41
2022/01/20 11:12:46;;;;;;;16.60;10.82;;;;;;;3.49;53.22;98532.25;1846269;77;21032;-41
2022/01/20 11:15:21;;;;;;;20.05;11.03;;;;;;;3.53;53.42;98541.77;1846133;77;21008;-41
2022/01/20 11:17:54;;;;;;;19.52;11.30;;;;;;;3.58;53.13;98527.59;1846643;77;21104;-41
2022/01/20 11:20:24;;;;;;;17.17;11.15;;;;;;;3.63;53.02;98516.63;1817537;77;21270;-41
2022/01/20 11:23:03;;;;;;;16.30;10.95;;;;;;;3.75;53.01;98515.31;1846062;77;20999;-41
2022/01/20 11:25:35;;;;;;;19.10;10.93;;;;;;;3.86;52.76;98507.61;1845899;77;21690;-41
2022/01/20 11:28:22;;;;;;;21.15;11.63;;;;;;;3.82;52.85;98519.57;1845752;77;21012;-42
2022/01/20 11:31:06;;;;;;;;;;;;;;;3.66;53.66;98518.66;1846982;77;21096;-42
2022/01/20 11:33:49;;;;;;;19.75;11.15;;;;;;;3.47;53.79;98512.50;1843768;77;20064;-42
2022/01/20 11:36:29;;;;;;;20.20;11.93;;;;;;;3.18;54.61;98511.88;1845798;77;20905;-42
2022/01/20 11:39:05;;;;;;;29.15;17.62;;;;;;;3.08;55.26;98508.28;1845935;77;20949;-42
2022/01/20 11:41:46;;;;;;;40.98;21.87;;;;;;;2.94;55.90;98499.99;1845807;77;21028;-43
2022/01/20 11:44:16;;;;;;;30.10;19.52;;;;;;;2.87;56.31;98494.92;1846065;77;21100;-42
2022/01/20 11:46:46;;;;;;;18.50;12.07;;;;;;;2.79;56.84;98492.57;1845910;77;21482;-43
2022/01/20 11:49:15;;;;;;;17.00;11.33;;;;;;;2.77;56.71;98484.08;1846328;77;21036;-43
2022/01/20 11:51:53;;;;;;;17.10;11.63;;;;;;;2.76;56.88;98471.80;1845962;77;20956;-42
2022/01/20 11:54:37;;;;;;;16.48;11.53;;;;;;;2.73;57.01;98472.47;1846035;77;21024;-42
2022/01/20 11:57:23;;;;;;;16.42;10.20;;;;;;;2.73;56.98;98471.68;1844415;77;21798;-43
2022/01/20 11:59:55;;;;;;;18.98;11.30;;;;;;;2.72;57.18;98482.16;1846047;77;20941;-42
2022/01/20 12:02:34;;;;;;;17.35;10.98;;;;;;;2.70;57.44;98478.48;1845839;77;21506;-42
2022/01/20 12:05:19;;;;;;;90.55;42.43;;;;;;;2.71;57.74;98480.03;1845613;77;20910;-42
2022/01/20 12:07:51;;;;;;;115.20;50.85;;;;;;;2.65;57.68;98470.66;1847847;77;22019;-42
2022/01/20 12:10:26;;;;;;;135.50;60.15;;;;;;;2.61;57.21;98451.78;1859214;77;21835;-42
2022/01/20 12:12:53;;;;;;;70.22;37.05;;;;;;;2.60;57.20;98444.11;1859201;77;20996;-42
2022/01/20 12:15:22;;;;;;;38.70;23.35;;;;;;;2.63;57.21;98440.77;1826676;77;21020;-42
2022/01/20 12:17:55;;;;;;;21.30;12.45;;;;;;;2.74;57.00;98451.84;1859427;77;21027;-42
2022/01/20 12:20:23;;;;;;;28.62;15.68;;;;;;;2.85;57.09;98454.34;1859453;77;21886;-42
2022/01/20 12:22:50;;;;;;;18.62;11.95;;;;;;;2.92;56.71;98450.00;1859201;77;21108;-42
2022/01/20 12:25:27;;;;;;;19.70;11.10;;;;;;;2.86;56.43;98449.97;1859341;77;20924;-42
2022/01/20 12:28:07;;;;;;;17.70;11.85;;;;;;;2.78;56.72;98448.17;1859286;77;21027;-43
2022/01/20 12:30:36;;;;;;;17.03;11.50;;;;;;;2.69;57.09;98447.48;1859277;77;21012;-42
2022/01/20 12:33:10;;;;;;;23.87;12.45;;;;;;;2.60;57.43;98445.44;1859042;77;21081;-42
2022/01/20 12:35:42;;;;;;;22.75;14.38;;;;;;;2.50;57.76;98444.51;1859392;77;21110;-42